Time;durP1;ratioP1;P1;durP2;ratioP2;P2;SDS_P1;SDS_P2;PMS_P1;PMS_P2;Temp;Humidity;BMP_temperature;BMP_pressure;BME280_temperature;BME280_humidity;BME280_pressure;Samples;Min_cycle;Max_cycle;Signal;HPM_P1;HPM_P2
2020/12/19 00:02:07;;;;;;;2.25;1.95;;;17.50;56.90;;;;;;5034028;28;20159;-77
2020/12/19 00:04:33;;;;;;;3.15;2.10;;;17.50;56.90;;;;;;5016176;28;20163;-76
2020/12/19 00:06:59;;;;;;;4.10;2.42;;;17.50;56.90;;;;;;5032794;28;20167;-77
2020/12/19 00:09:25;;;;;;;2.92;2.10;;;17.50;56.90;;;;;;5033678;28;20159;-78
2020/12/19 00:11:51;;;;;;;2.88;2.00;;;17.50;56.90;;;;;;5035794;28;20162;-77
2020/12/19 00:14:19;;;;;;;3.22;2.22;;;17.50;56.90;;;;;;5036386;28;20521;-77
2020/12/19 00:16:45;;;;;;;2.45;1.90;;;17.50;56.90;;;;;;5035865;28;20157;-77
2020/12/19 00:19:10;;;;;;;4.35;2.53;;;17.50;56.90;;;;;;5037330;28;20191;-76
2020/12/19 00:21:37;;;;;;;2.20;1.85;;;17.50;57.00;;;;;;5035892;28;20640;-77
2020/12/19 00:24:03;;;;;;;2.80;2.10;;;17.50;57.00;;;;;;5036090;28;20163;-76
2020/12/19 00:26:51;;;;;;;2.50;2.10;;;17.50;56.80;;;;;;5037029;28;20159;-77
2020/12/19 00:29:18;;;;;;;3.28;2.00;;;17.50;56.80;;;;;;5036750;28;20162;-77
2020/12/19 00:31:44;;;;;;;3.85;2.35;;;17.50;56.80;;;;;;5036739;28;20221;-77
2020/12/19 00:34:11;;;;;;;2.15;1.95;;;17.50;56.70;;;;;;5037197;28;20163;-77
2020/12/19 00:36:38;;;;;;;5.25;2.20;;;17.50;56.90;;;;;;5036094;28;20163;-77
2020/12/19 00:39:05;;;;;;;4.70;2.20;;;17.50;57.00;;;;;;5035359;28;20223;-77
2020/12/19 00:41:32;;;;;;;3.80;2.10;;;17.50;56.80;;;;;;5036988;28;20155;-77
2020/12/19 00:43:58;;;;;;;2.58;1.92;;;17.50;56.90;;;;;;5037417;28;20622;-77
2020/12/19 00:46:24;;;;;;;3.63;1.98;;;17.50;56.80;;;;;;5035401;28;20556;-77
2020/12/19 00:48:49;;;;;;;4.00;2.10;;;17.50;57.50;;;;;;5035362;28;20250;-78
2020/12/19 00:51:20;;;;;;;3.03;2.15;;;17.50;56.70;;;;;;5036860;28;20186;-76
2020/12/19 00:53:50;;;;;;;4.32;2.30;;;17.50;56.80;;;;;;5036470;28;20162;-77
2020/12/19 00:56:21;;;;;;;2.90;2.10;;;17.50;57.00;;;;;;5037292;28;20155;-77
2020/12/19 00:58:48;;;;;;;3.42;2.40;;;17.50;57.00;;;;;;5035813;28;20536;-77
2020/12/19 01:01:14;;;;;;;2.50;2.05;;;17.50;56.90;;;;;;5036667;28;20158;-77
2020/12/19 01:03:41;;;;;;;2.75;2.03;;;17.50;56.80;;;;;;5036536;28;20151;-77
2020/12/19 01:06:08;;;;;;;2.88;2.20;;;17.50;56.90;;;;;;5036361;28;20230;-77
2020/12/19 01:08:34;;;;;;;2.78;2.08;;;17.50;56.90;;;;;;5034985;28;20163;-77
2020/12/19 01:10:59;;;;;;;3.35;2.10;;;17.50;56.90;;;;;;5035508;28;20209;-77
2020/12/19 01:13:25;;;;;;;3.45;2.25;;;17.50;56.90;;;;;;5035120;28;20159;-77
2020/12/19 01:15:51;;;;;;;2.67;2.13;;;17.40;56.80;;;;;;5035174;28;20619;-77
2020/12/19 01:18:17;;;;;;;2.58;2.15;;;17.40;56.90;;;;;;5034756;28;20190;-76
2020/12/19 01:20:43;;;;;;;2.78;2.10;;;17.50;56.80;;;;;;5034293;28;20672;-77
2020/12/19 01:23:09;;;;;;;3.53;2.30;;;17.40;56.80;;;;;;5035378;28;20159;-77
2020/12/19 01:25:35;;;;;;;3.03;2.33;;;17.40;56.80;;;;;;5035821;28;20522;-77
2020/12/19 01:28:01;;;;;;;3.40;2.00;;;17.50;56.90;;;;;;5035848;28;20641;-76
2020/12/19 01:30:26;;;;;;;2.90;2.05;;;17.50;56.80;;;;;;5035620;28;20162;-77
2020/12/19 01:32:52;;;;;;;3.42;1.92;;;17.50;56.90;;;;;;5035686;28;20168;-77
2020/12/19 01:35:18;;;;;;;4.03;1.95;;;17.50;57.00;;;;;;5034544;28;20151;-77
2020/12/19 01:37:43;;;;;;;3.75;2.17;;;17.50;56.90;;;;;;5041246;28;20561;-77
2020/12/19 01:40:09;;;;;;;3.13;1.85;;;17.50;56.90;;;;;;5037959;28;20235;-77
2020/12/19 01:42:35;;;;;;;3.55;2.22;;;17.50;56.90;;;;;;5055488;28;20521;-77
2020/12/19 01:45:01;;;;;;;3.10;2.28;;;17.50;57.00;;;;;;5055264;28;20241;-77
2020/12/19 01:47:27;;;;;;;2.33;2.00;;;17.50;56.90;;;;;;5055110;28;20566;-77
2020/12/19 01:49:52;;;;;;;3.03;2.30;;;17.40;56.90;;;;;;5037956;28;20524;-76
2020/12/19 01:52:19;;;;;;;2.70;2.05;;;17.50;56.90;;;;;;5020652;28;20178;-77
2020/12/19 01:54:45;;;;;;;2.78;2.20;;;17.50;57.00;;;;;;5037716;28;20180;-76
2020/12/19 01:57:11;;;;;;;2.40;2.00;;;17.50;56.90;;;;;;5055069;28;20205;-77
2020/12/19 01:59:36;;;;;;;3.60;2.30;;;17.40;56.90;;;;;;5020478;28;20190;-77
2020/12/19 02:02:09;;;;;;;3.45;2.40;;;17.50;56.80;;;;;;5055111;28;20155;-77
2020/12/19 02:04:34;;;;;;;2.55;2.15;;;17.40;56.90;;;;;;5037023;28;20146;-77
2020/12/19 02:07:01;;;;;;;2.25;1.92;;;17.40;57.00;;;;;;5036979;28;20503;-77
2020/12/19 02:09:37;;;;;;;3.90;2.20;;;17.50;57.10;;;;;;5037517;28;20157;-77
2020/12/19 02:12:03;;;;;;;3.60;2.20;;;17.40;56.90;;;;;;5037987;28;20643;-77
2020/12/19 02:14:30;;;;;;;2.95;2.00;;;17.40;56.90;;;;;;5036981;28;20162;-77
2020/12/19 02:16:59;;;;;;;2.88;2.22;;;17.40;56.90;;;;;;5037240;28;20154;-77
2020/12/19 02:19:25;;;;;;;2.60;2.10;;;17.40;56.80;;;;;;5036545;28;20640;-77
2020/12/19 02:21:51;;;;;;;2.15;1.92;;;17.50;56.90;;;;;;5020098;28;20170;-76
2020/12/19 02:24:17;;;;;;;2.70;2.20;;;17.50;56.80;;;;;;5036798;28;20154;-76
2020/12/19 02:26:48;;;;;;;2.83;2.47;;;17.50;56.70;;;;;;5054482;28;20521;-77
2020/12/19 02:29:15;;;;;;;2.53;2.10;;;17.50;56.70;;;;;;5036689;28;20166;-77
2020/12/19 02:31:42;;;;;;;2.97;2.28;;;17.50;56.80;;;;;;5054269;28;20166;-76
2020/12/19 02:34:07;;;;;;;3.17;2.20;;;17.50;56.70;;;;;;5036210;28;20604;-77
2020/12/19 02:36:34;;;;;;;3.63;2.28;;;17.50;56.90;;;;;;5036711;28;20182;-77
2020/12/19 02:39:01;;;;;;;2.85;2.20;;;17.50;56.80;;;;;;5035925;28;20252;-77
2020/12/19 02:41:27;;;;;;;3.83;2.25;;;17.50;56.80;;;;;;5020221;28;20176;-77
2020/12/19 02:43:54;;;;;;;3.25;2.13;;;17.50;56.90;;;;;;5054374;28;20165;-77
2020/12/19 02:46:20;;;;;;;2.50;2.15;;;17.50;56.90;;;;;;5036484;28;20146;-77
2020/12/19 02:48:46;;;;;;;3.10;2.25;;;17.40;57.10;;;;;;5054558;28;20153;-76
2020/12/19 02:51:11;;;;;;;3.60;2.30;;;17.40;57.10;;;;;;5054182;28;20288;-77
2020/12/19 02:53:38;;;;;;;2.63;2.05;;;17.40;57.10;;;;;;5053832;28;20170;-77
2020/12/19 02:56:04;;;;;;;2.70;1.98;;;17.40;57.10;;;;;;5036851;28;20169;-76
2020/12/19 02:58:31;;;;;;;3.42;2.08;;;17.40;57.10;;;;;;5019626;28;20737;-76
2020/12/19 03:00:57;;;;;;;3.08;2.00;;;17.40;57.00;;;;;;5053990;28;20173;-76
2020/12/19 03:03:23;;;;;;;3.10;2.10;;;17.40;57.20;;;;;;5020070;28;20248;-77
2020/12/19 03:05:49;;;;;;;3.00;2.13;;;17.40;57.00;;;;;;5054073;28;20220;-76
2020/12/19 03:08:16;;;;;;;2.35;1.92;;;17.40;57.20;;;;;;5054098;28;20158;-77
2020/12/19 03:10:43;;;;;;;4.18;2.22;;;17.40;57.10;;;;;;5054244;28;20157;-77
2020/12/19 03:13:10;;;;;;;3.10;2.20;;;17.40;57.10;;;;;;5036498;28;20192;-77
2020/12/19 03:15:35;;;;;;;2.20;2.00;;;17.40;57.10;;;;;;5036055;28;20162;-78
2020/12/19 03:18:01;;;;;;;2.35;1.90;;;17.40;57.10;;;;;;5053704;28;20204;-77
2020/12/19 03:20:27;;;;;;;3.15;2.00;;;17.40;57.10;;;;;;5053798;28;20154;-76
2020/12/19 03:22:52;;;;;;;3.08;2.03;;;17.40;56.90;;;;;;5036112;28;20636;-77
2020/12/19 03:25:18;;;;;;;3.05;2.20;;;17.40;57.10;;;;;;5036252;28;20545;-76
2020/12/19 03:27:44;;;;;;;2.15;1.95;;;17.40;57.10;;;;;;5054238;28;20564;-76
2020/12/19 03:30:10;;;;;;;2.40;2.20;;;17.40;57.10;;;;;;5053735;28;20162;-76
2020/12/19 03:32:35;;;;;;;2.92;2.03;;;17.40;57.10;;;;;;5054048;28;20154;-77
2020/12/19 03:35:01;;;;;;;3.72;2.00;;;17.40;57.00;;;;;;5053835;28;20240;-77
2020/12/19 03:37:26;;;;;;;2.60;1.95;;;17.40;57.00;;;;;;5035587;28;20213;-77
2020/12/19 03:39:53;;;;;;;2.58;1.90;;;17.40;57.10;;;;;;5053824;28;20223;-77
2020/12/19 03:42:19;;;;;;;3.03;2.30;;;17.40;57.10;;;;;;5053722;28;20672;-77
2020/12/19 03:44:46;;;;;;;3.15;2.20;;;17.40;57.20;;;;;;5053962;28;20576;-77
2020/12/19 03:47:12;;;;;;;3.58;2.35;;;17.40;57.10;;;;;;5057677;28;20154;-76
2020/12/19 03:49:38;;;;;;;3.47;2.53;;;17.40;57.20;;;;;;5039474;28;20208;-77
2020/12/19 03:52:03;;;;;;;3.20;2.15;;;17.40;57.30;;;;;;5057211;28;20168;-77
2020/12/19 03:54:30;;;;;;;3.28;2.13;;;17.40;57.40;;;;;;5057544;28;20201;-77
2020/12/19 03:56:56;;;;;;;2.72;2.10;;;17.40;57.30;;;;;;5057548;28;20158;-76
2020/12/19 03:59:23;;;;;;;2.30;1.85;;;17.40;57.30;;;;;;5039020;28;20186;-77
2020/12/19 04:01:48;;;;;;;3.00;2.05;;;17.30;57.50;;;;;;5057437;28;20154;-77
2020/12/19 04:04:14;;;;;;;2.20;1.92;;;17.40;57.30;;;;;;5057264;28;20636;-77
2020/12/19 04:06:39;;;;;;;2.38;2.08;;;17.40;57.20;;;;;;5057065;28;20174;-77
2020/12/19 04:09:06;;;;;;;2.47;2.08;;;17.40;57.80;;;;;;5057218;28;20158;-77
2020/12/19 04:11:32;;;;;;;2.58;1.90;;;17.40;57.10;;;;;;5057132;28;20163;-76
2020/12/19 04:13:58;;;;;;;3.00;2.13;;;17.40;57.00;;;;;;5057452;28;20640;-77
2020/12/19 04:16:25;;;;;;;2.83;2.00;;;17.40;57.00;;;;;;5057114;28;20177;-77
2020/12/19 04:18:51;;;;;;;2.28;1.90;;;17.40;57.20;;;;;;5056786;28;20267;-78
2020/12/19 04:21:18;;;;;;;2.70;2.10;;;17.40;57.10;;;;;;5038591;28;20198;-77
2020/12/19 04:23:45;;;;;;;2.75;2.30;;;17.40;57.10;;;;;;5056252;28;20162;-77
2020/12/19 04:26:11;;;;;;;2.88;1.95;;;17.40;57.10;;;;;;5056495;28;20160;-77
2020/12/19 04:28:37;;;;;;;2.78;2.15;;;17.40;57.10;;;;;;5056256;28;20249;-77
2020/12/19 04:31:04;;;;;;;3.00;2.10;;;17.40;57.10;;;;;;5056088;28;20188;-77
2020/12/19 04:33:30;;;;;;;3.05;2.20;;;17.40;57.10;;;;;;5038727;28;20192;-77
2020/12/19 04:35:56;;;;;;;3.20;2.00;;;17.40;57.20;;;;;;5056097;28;20609;-78
2020/12/19 04:38:22;;;;;;;3.83;1.90;;;17.40;57.30;;;;;;5055931;28;20312;-78
2020/12/19 04:40:48;;;;;;;4.43;2.15;;;17.40;58.10;;;;;;5056047;28;20249;-77
2020/12/19 04:43:34;;;;;;;2.60;1.90;;;17.40;57.30;;;;;;5055926;28;20154;-77
2020/12/19 04:46:00;;;;;;;3.47;2.08;;;17.30;57.40;;;;;;5054746;28;20163;-77
2020/12/19 04:48:27;;;;;;;2.78;2.00;;;17.30;57.20;;;;;;5038096;28;20162;-77
2020/12/19 04:50:53;;;;;;;3.03;2.13;;;17.40;57.20;;;;;;5037994;28;20636;-77
2020/12/19 04:53:21;;;;;;;3.08;2.10;;;17.30;57.30;;;;;;5037731;28;20166;-78
2020/12/19 04:55:48;;;;;;;2.70;2.00;;;17.30;57.20;;;;;;5037909;28;20165;-77
2020/12/19 04:58:19;;;;;;;2.60;2.08;;;17.30;57.30;;;;;;5055424;28;20158;-77
2020/12/19 05:00:46;;;;;;;3.75;1.95;;;17.30;57.40;;;;;;5055769;28;20200;-77
2020/12/19 05:03:13;;;;;;;2.95;2.17;;;17.30;57.50;;;;;;5055405;28;20154;-77
2020/12/19 05:05:43;;;;;;;3.80;2.20;;;17.30;57.40;;;;;;5055646;28;20181;-77
2020/12/19 05:08:10;;;;;;;3.42;2.40;;;17.40;57.40;;;;;;5055614;28;20151;-77
2020/12/19 05:10:37;;;;;;;3.15;2.20;;;17.30;57.20;;;;;;5037871;28;20185;-77
2020/12/19 05:13:03;;;;;;;2.92;2.20;;;17.30;57.40;;;;;;5037775;28;20573;-77
2020/12/19 05:15:30;;;;;;;3.20;2.15;;;17.30;57.30;;;;;;5055489;28;20162;-77
2020/12/19 05:17:57;;;;;;;2.45;2.00;;;17.30;57.30;;;;;;5055205;28;20609;-77
2020/12/19 05:20:26;;;;;;;2.28;1.90;;;17.30;57.30;;;;;;5037494;28;20208;-77
2020/12/19 05:22:52;;;;;;;3.28;2.20;;;17.30;57.20;;;;;;5055147;28;20154;-77
2020/12/19 05:25:19;;;;;;;3.33;2.20;;;17.30;57.20;;;;;;5037308;28;20158;-77
2020/12/19 05:27:44;;;;;;;2.95;2.00;;;17.30;57.20;;;;;;5037570;28;20159;-77
2020/12/19 05:30:11;;;;;;;3.35;2.00;;;17.30;57.30;;;;;;5020698;28;20170;-77
2020/12/19 05:32:42;;;;;;;2.83;2.15;;;17.40;57.40;;;;;;5054807;28;20223;-77
2020/12/19 05:35:08;;;;;;;2.20;1.92;;;17.30;57.20;;;;;;5037576;28;20161;-77
2020/12/19 05:37:34;;;;;;;3.47;2.17;;;17.40;57.20;;;;;;5037145;28;20217;-77
2020/12/19 05:40:06;;;;;;;2.28;2.03;;;17.30;57.20;;;;;;5055212;28;20519;-77
2020/12/19 05:42:33;;;;;;;2.50;2.05;;;17.40;57.40;;;;;;5037799;28;20162;-76
2020/12/19 05:44:59;;;;;;;2.78;2.13;;;17.40;57.30;;;;;;5055327;28;20640;-77
2020/12/19 05:47:26;;;;;;;2.20;2.00;;;17.30;57.40;;;;;;5055244;28;20154;-76
2020/12/19 05:49:52;;;;;;;3.05;2.20;;;17.30;57.10;;;;;;5037735;28;20155;-77
2020/12/19 05:52:19;;;;;;;4.57;2.25;;;17.30;57.20;;;;;;5054911;28;20241;-77
2020/12/19 05:54:46;;;;;;;3.05;2.22;;;17.30;57.30;;;;;;5037227;28;20680;-76
2020/12/19 05:57:12;;;;;;;3.08;2.10;;;17.30;57.30;;;;;;5037147;28;20166;-76
2020/12/19 05:59:39;;;;;;;2.45;2.03;;;17.40;57.40;;;;;;5054561;28;20190;-77
2020/12/19 06:02:05;;;;;;;3.30;2.13;;;17.30;57.40;;;;;;5037279;28;20154;-76
2020/12/19 06:04:31;;;;;;;2.95;1.98;;;17.30;57.30;;;;;;5054324;28;20158;-77
2020/12/19 06:06:58;;;;;;;3.10;1.92;;;17.30;57.30;;;;;;5054562;28;20670;-76
2020/12/19 06:09:24;;;;;;;3.15;2.28;;;17.30;57.40;;;;;;5036390;28;20530;-77
2020/12/19 06:11:52;;;;;;;3.08;2.28;;;17.30;57.90;;;;;;5036692;28;20154;-77
2020/12/19 06:14:21;;;;;;;2.95;2.10;;;17.40;57.30;;;;;;5054832;28;20154;-76
2020/12/19 06:16:49;;;;;;;2.88;2.20;;;17.30;57.30;;;;;;5054710;28;20211;-77
2020/12/19 06:19:16;;;;;;;2.90;2.10;;;17.30;57.40;;;;;;5054453;28;20194;-77
2020/12/19 06:21:48;;;;;;;3.53;1.98;;;17.40;57.30;;;;;;5054798;28;20173;-77
2020/12/19 06:24:45;;;;;;;3.55;2.10;;;17.30;57.40;;;;;;5054606;28;20214;-76
2020/12/19 06:27:17;;;;;;;2.58;2.25;;;17.30;57.30;;;;;;5036924;28;20188;-77
2020/12/19 06:29:43;;;;;;;2.33;2.00;;;17.30;57.30;;;;;;5036442;28;20170;-77
2020/12/19 06:32:21;;;;;;;3.05;2.10;;;17.40;57.30;;;;;;5053817;28;20527;-77
2020/12/19 06:35:02;;;;;;;3.72;2.10;;;17.40;57.30;;;;;;5054558;28;20177;-77
2020/12/19 06:37:28;;;;;;;2.58;1.90;;;17.30;57.40;;;;;;5054294;28;20222;-77
2020/12/19 06:40:18;;;;;;;2.38;2.00;;;17.30;57.30;;;;;;5036333;28;20231;-77
2020/12/19 06:42:45;;;;;;;5.55;2.42;;;17.30;57.20;;;;;;5054334;28;20163;-77
2020/12/19 06:45:27;;;;;;;2.72;2.08;;;17.30;57.30;;;;;;5054150;28;20154;-76
2020/12/19 06:47:53;;;;;;;3.15;2.25;;;17.30;57.10;;;;;;5053745;28;20146;-76
2020/12/19 06:50:20;;;;;;;2.88;2.20;;;17.30;57.40;;;;;;5035883;28;20241;-77
2020/12/19 06:53:14;;;;;;;2.45;2.10;;;17.30;57.30;;;;;;5035850;28;20241;-77
2020/12/19 06:55:47;;;;;;;3.05;2.42;;;17.40;57.30;;;;;;5052727;28;20158;-77
2020/12/19 06:58:34;;;;;;;5.07;2.35;;;17.40;57.10;;;;;;5035585;28;20269;-77
2020/12/19 07:01:06;;;;;;;3.05;2.17;;;17.40;57.20;;;;;;5036402;28;20158;-76
2020/12/19 07:03:36;;;;;;;2.67;2.10;;;17.40;57.10;;;;;;5036249;28;20180;-77
2020/12/19 07:06:09;;;;;;;3.00;2.15;;;17.40;57.10;;;;;;5054237;28;20150;-77
2020/12/19 07:08:36;;;;;;;3.20;2.25;;;17.40;57.10;;;;;;5053465;28;20243;-76
2020/12/19 07:11:03;;;;;;;3.22;2.10;;;17.40;57.10;;;;;;5053597;28;20292;-77
2020/12/19 07:13:51;;;;;;;3.20;2.50;;;17.40;57.00;;;;;;5053876;28;20165;-77
2020/12/19 07:16:42;;;;;;;2.88;2.08;;;17.40;57.10;;;;;;5035965;28;20158;-77
2020/12/19 07:19:25;;;;;;;2.60;2.20;;;17.40;57.00;;;;;;5012913;28;20207;-77
2020/12/19 07:21:53;;;;;;;5.43;2.25;;;17.40;57.20;;;;;;4998966;28;20176;-77
2020/12/19 07:24:19;;;;;;;3.80;2.28;;;17.40;57.30;;;;;;5001895;28;20179;-77
2020/12/19 07:26:45;;;;;;;2.70;2.20;;;17.40;57.30;;;;;;5035335;28;20238;-77
2020/12/19 07:29:13;;;;;;;3.13;2.00;;;17.40;57.40;;;;;;5018745;28;20645;-77
2020/12/19 07:31:47;;;;;;;2.88;2.20;;;17.40;57.40;;;;;;5018585;28;20163;-77
2020/12/19 07:34:13;;;;;;;2.60;1.90;;;17.40;57.50;;;;;;5018510;28;20159;-77
2020/12/19 07:36:41;;;;;;;3.72;2.63;;;17.40;57.40;;;;;;5018578;28;20190;-77
2020/12/19 07:39:08;;;;;;;3.00;2.25;;;17.40;57.40;;;;;;5018002;28;20226;-77
2020/12/19 07:41:35;;;;;;;3.45;2.22;;;17.40;57.50;;;;;;5034641;28;20209;-77
2020/12/19 07:44:26;;;;;;;2.60;2.00;;;17.50;57.10;;;;;;5035042;28;20673;-77
2020/12/19 07:46:57;;;;;;;2.95;2.33;;;17.50;57.00;;;;;;5032991;28;20174;-77
2020/12/19 07:49:52;;;;;;;3.67;2.30;;;17.50;56.90;;;;;;5018263;28;20181;-77
2020/12/19 07:52:23;;;;;;;4.03;2.30;;;17.50;56.90;;;;;;5033354;28;20162;-77
2020/12/19 07:55:00;;;;;;;3.67;2.33;;;17.50;56.90;;;;;;5035717;28;20159;-77
2020/12/19 07:57:28;;;;;;;2.40;2.10;;;17.50;56.90;;;;;;5059201;28;20172;-76
2020/12/19 07:59:54;;;;;;;4.22;2.40;;;17.50;56.90;;;;;;5058694;28;20189;-77
2020/12/19 08:02:22;;;;;;;2.58;2.30;;;17.50;57.00;;;;;;5058285;28;20181;-77
2020/12/19 08:04:52;;;;;;;3.35;2.40;;;17.60;56.90;;;;;;5076731;28;20150;-76
2020/12/19 08:07:20;;;;;;;4.10;2.45;;;17.60;56.90;;;;;;5058542;28;20284;-77
2020/12/19 08:09:47;;;;;;;2.80;2.20;;;17.60;56.80;;;;;;5076628;28;20157;-76
2020/12/19 08:12:14;;;;;;;4.25;2.08;;;17.60;56.90;;;;;;5076074;28;20153;-77
2020/12/19 08:14:43;;;;;;;3.20;2.25;;;17.60;56.90;;;;;;5076027;28;20165;-78
2020/12/19 08:17:14;;;;;;;4.88;2.40;;;17.60;57.00;;;;;;5058308;28;20150;-77
2020/12/19 08:19:49;;;;;;;2.55;2.30;;;17.60;56.90;;;;;;5057941;28;20667;-77
2020/12/19 08:22:15;;;;;;;3.33;2.15;;;17.60;56.90;;;;;;5075995;28;20153;-78
2020/12/19 08:24:47;;;;;;;3.30;2.42;;;17.70;56.90;;;;;;5075945;28;20643;-77
2020/12/19 08:27:35;;;;;;;3.20;2.13;;;17.60;57.00;;;;;;5058218;28;20240;-77
2020/12/19 08:30:03;;;;;;;2.50;2.03;;;17.70;57.00;;;;;;5076088;28;20153;-78
2020/12/19 08:32:30;;;;;;;4.90;2.50;;;17.70;57.00;;;;;;5075215;28;20192;-78
2020/12/19 08:34:56;;;;;;;5.13;2.50;;;17.70;56.90;;;;;;5076109;28;20157;-78
2020/12/19 08:37:22;;;;;;;3.60;2.38;;;17.80;56.70;;;;;;5057784;28;20161;-76
2020/12/19 08:40:04;;;;;;;5.88;2.50;;;17.80;56.70;;;;;;5057729;28;20725;-77
2020/12/19 08:42:31;;;;;;;7.35;2.55;;;17.90;56.60;;;;;;5075666;28;20670;-77
2020/12/19 08:45:16;;;;;;;5.28;2.28;;;17.80;56.50;;;;;;5057635;28;20208;-77
2020/12/19 08:47:43;;;;;;;5.68;2.63;;;17.80;56.60;;;;;;5074177;28;20150;-77
2020/12/19 08:50:10;;;;;;;4.70;2.35;;;17.80;56.70;;;;;;5075490;28;20166;-78
2020/12/19 08:52:36;;;;;;;6.70;2.33;;;17.80;56.60;;;;;;5057708;28;20659;-77
2020/12/19 08:55:03;;;;;;;11.40;2.35;;;17.80;56.60;;;;;;5075426;28;20162;-77
2020/12/19 08:57:34;;;;;;;9.30;2.42;;;17.70;56.70;;;;;;5057852;28;20161;-78
2020/12/19 09:00:13;;;;;;;6.47;2.20;;;17.80;56.70;;;;;;5075033;28;20184;-77
2020/12/19 09:02:43;;;;;;;9.02;2.50;;;17.80;56.90;;;;;;5074976;28;20240;-77
2020/12/19 09:05:10;;;;;;;11.45;2.80;;;17.80;56.90;;;;;;5075163;28;20157;-78
2020/12/19 09:07:37;;;;;;;8.50;2.47;;;17.80;56.80;;;;;;5056906;28;20284;-78
2020/12/19 09:10:29;;;;;;;7.30;2.35;;;17.80;56.70;;;;;;5075113;28;20160;-77
2020/12/19 09:13:13;;;;;;;6.45;2.38;;;17.80;56.70;;;;;;5075031;28;20158;-77
2020/12/19 09:15:40;;;;;;;4.97;2.83;;;17.80;56.60;;;;;;5075062;28;20523;-78
2020/12/19 09:18:18;;;;;;;11.07;2.85;;;17.80;56.80;;;;;;5074874;28;20153;-78
2020/12/19 09:20:45;;;;;;;10.27;2.58;;;17.80;56.80;;;;;;5074798;28;20153;-77
2020/12/19 09:23:12;;;;;;;9.77;2.55;;;17.80;56.90;;;;;;5057072;28;20604;-77
2020/12/19 09:25:38;;;;;;;8.02;2.63;;;17.80;57.10;;;;;;5057060;28;20222;-78
2020/12/19 09:28:05;;;;;;;11.15;2.72;;;17.70;57.20;;;;;;5074734;28;20696;-78
2020/12/19 09:30:31;;;;;;;8.43;2.78;;;17.80;56.90;;;;;;5074751;28;20168;-77
2020/12/19 09:32:58;;;;;;;5.13;2.50;;;17.80;56.80;;;;;;5074596;28;20162;-78
2020/12/19 09:35:43;;;;;;;9.32;2.90;;;17.90;56.60;;;;;;5074700;28;20172;-77
2020/12/19 09:38:09;;;;;;;6.60;2.45;;;17.90;56.60;;;;;;5051709;28;20228;-78
2020/12/19 09:40:36;;;;;;;7.95;2.50;;;17.90;56.60;;;;;;5054550;28;20178;-78
2020/12/19 09:43:03;;;;;;;6.32;2.33;;;17.90;56.70;;;;;;5052324;28;20208;-78
2020/12/19 09:45:30;;;;;;;7.63;2.40;;;17.90;56.70;;;;;;5054820;28;20233;-77
2020/12/19 09:47:57;;;;;;;6.72;2.42;;;17.90;56.70;;;;;;5053006;28;20216;-77
2020/12/19 09:50:24;;;;;;;5.93;2.35;;;17.80;56.90;;;;;;5054254;28;20158;-77
2020/12/19 09:52:50;;;;;;;4.07;2.38;;;17.80;56.80;;;;;;5053255;28;20667;-77
2020/12/19 09:55:17;;;;;;;7.07;2.85;;;17.90;56.70;;;;;;5054035;28;20170;-78
2020/12/19 09:57:43;;;;;;;5.45;2.38;;;17.90;56.70;;;;;;5054443;28;20161;-77
2020/12/19 10:00:11;;;;;;;4.60;2.40;;;17.90;56.60;;;;;;5053666;28;20189;-78
2020/12/19 10:02:37;;;;;;;3.38;2.10;;;17.90;56.70;;;;;;5052994;28;20620;-78
2020/12/19 10:05:05;;;;;;;7.65;2.75;;;17.90;56.90;;;;;;5054460;28;20208;-78
2020/12/19 10:07:31;;;;;;;3.30;2.22;;;17.90;56.70;;;;;;5053891;28;20154;-78
2020/12/19 10:09:57;;;;;;;7.55;2.53;;;18.00;56.50;;;;;;5053718;28;20523;-78
2020/12/19 10:12:24;;;;;;;10.57;2.55;;;18.10;56.50;;;;;;5052735;28;20169;-78
2020/12/19 10:14:50;;;;;;;6.30;2.75;;;18.00;56.80;;;;;;5052653;28;20621;-79
2020/12/19 10:17:17;;;;;;;13.05;3.00;;;17.90;56.70;;;;;;5052254;28;20212;-78
2020/12/19 10:19:44;;;;;;;10.93;2.80;;;17.90;56.80;;;;;;5053737;28;20194;-78
2020/12/19 10:22:10;;;;;;;11.85;2.85;;;18.00;56.80;;;;;;5052817;28;20158;-78
2020/12/19 10:24:36;;;;;;;17.73;3.10;;;18.00;56.80;;;;;;5054092;28;20200;-77
2020/12/19 10:27:03;;;;;;;13.80;2.90;;;17.90;57.00;;;;;;5054153;28;20201;-78
2020/12/19 10:29:29;;;;;;;10.73;2.80;;;17.90;57.00;;;;;;5053568;28;20620;-78
2020/12/19 10:31:55;;;;;;;13.95;2.85;;;17.90;57.10;;;;;;5054041;28;20261;-78
2020/12/19 10:34:21;;;;;;;10.10;2.47;;;17.80;57.30;;;;;;5053211;28;20656;-78
2020/12/19 10:36:53;;;;;;;14.27;2.97;;;17.90;57.00;;;;;;5053455;28;20208;-78
2020/12/19 10:39:19;;;;;;;6.53;2.67;;;17.90;57.10;;;;;;5072014;28;20217;-78
2020/12/19 10:41:49;;;;;;;12.75;3.10;;;17.90;57.30;;;;;;5055125;28;20183;-77
2020/12/19 10:44:15;;;;;;;10.73;2.80;;;18.00;57.20;;;;;;5055353;28;20181;-77
2020/12/19 10:46:41;;;;;;;8.27;2.53;;;18.00;57.10;;;;;;5073010;28;20249;-78
2020/12/19 10:49:07;;;;;;;10.80;2.70;;;18.00;57.10;;;;;;5073530;28;20189;-78
2020/12/19 10:51:32;;;;;;;12.02;2.90;;;18.00;57.10;;;;;;5073202;28;20192;-77
2020/12/19 10:53:58;;;;;;;9.73;2.92;;;18.00;57.10;;;;;;5072662;28;20180;-77
2020/12/19 10:56:24;;;;;;;9.45;2.60;;;18.10;56.90;;;;;;5072848;28;20161;-77
2020/12/19 10:58:49;;;;;;;8.65;2.70;;;18.10;57.00;;;;;;5072911;28;20193;-78
2020/12/19 11:01:15;;;;;;;8.27;2.50;;;18.10;57.10;;;;;;5054807;28;20162;-77
2020/12/19 11:03:41;;;;;;;9.73;2.55;;;18.10;57.00;;;;;;5071991;28;20159;-81
2020/12/19 11:06:16;;;;;;;10.20;2.97;;;18.10;57.10;;;;;;5017963;28;20224;-79
2020/12/19 11:08:43;;;;;;;13.35;3.08;;;18.10;57.00;;;;;;5034084;28;20158;-81
2020/12/19 11:11:10;;;;;;;14.48;2.70;;;18.20;56.90;;;;;;5033773;28;20159;-79
2020/12/19 11:13:37;;;;;;;9.98;2.60;;;18.10;56.70;;;;;;5035336;28;20159;-79
2020/12/19 11:16:21;;;;;;;12.55;2.90;;;18.20;56.90;;;;;;5036731;28;20194;-80
2020/12/19 11:18:48;;;;;;;10.27;2.67;;;18.20;57.10;;;;;;5035408;28;20199;-79
2020/12/19 11:21:15;;;;;;;12.27;2.55;;;18.20;56.90;;;;;;5037417;28;20162;-81
2020/12/19 11:23:41;;;;;;;12.23;2.88;;;18.30;56.80;;;;;;5036308;28;20193;-81
2020/12/19 11:26:07;;;;;;;13.30;3.00;;;18.30;56.70;;;;;;5036883;28;20155;-80
2020/12/19 11:28:34;;;;;;;10.63;2.90;;;18.40;56.70;;;;;;5036819;28;20163;-79
2020/12/19 11:31:00;;;;;;;12.02;3.17;;;18.30;56.80;;;;;;5019060;28;20248;-79
2020/12/19 11:33:27;;;;;;;10.00;2.90;;;18.30;56.70;;;;;;5035653;28;20163;-78
2020/12/19 11:35:53;;;;;;;12.15;2.78;;;18.20;56.90;;;;;;5034483;28;20614;-80
2020/12/19 11:38:19;;;;;;;10.23;2.70;;;18.30;56.80;;;;;;5022267;28;20230;-81
2020/12/19 11:40:45;;;;;;;7.05;2.40;;;18.30;56.90;;;;;;5042175;28;20743;-79
2020/12/19 11:43:10;;;;;;;9.05;3.00;;;18.30;57.60;;;;;;5053387;28;20466;-78
2020/12/19 11:45:36;;;;;;;16.50;2.60;;;18.40;56.80;;;;;;5031513;28;20202;-80
2020/12/19 11:48:02;;;;;;;15.82;2.83;;;18.40;56.70;;;;;;5032614;28;20514;-79
2020/12/19 11:50:27;;;;;;;11.55;2.90;;;18.30;57.10;;;;;;5046634;28;20174;-80
2020/12/19 11:52:53;;;;;;;11.30;2.70;;;18.30;57.10;;;;;;5052064;28;20165;-80
2020/12/19 11:55:18;;;;;;;8.27;2.70;;;18.30;57.20;;;;;;5052433;28;20166;-79
2020/12/19 11:57:45;;;;;;;7.45;2.53;;;18.30;57.10;;;;;;5052630;28;20537;-79
2020/12/19 12:00:11;;;;;;;11.00;2.65;;;18.30;57.10;;;;;;5051594;28;20328;-81
2020/12/19 12:02:37;;;;;;;7.32;2.72;;;18.30;57.10;;;;;;5051430;28;20574;-80
2020/12/19 12:05:04;;;;;;;12.55;3.00;;;18.30;57.30;;;;;;5053297;28;20189;-81
2020/12/19 12:07:30;;;;;;;9.63;2.85;;;18.30;57.50;;;;;;5057444;28;20177;-80
2020/12/19 12:09:55;;;;;;;8.57;2.80;;;18.30;57.90;;;;;;5058370;28;20234;-79
2020/12/19 12:12:21;;;;;;;10.45;2.70;;;18.30;57.50;;;;;;5056970;28;20633;-79
2020/12/19 12:14:47;;;;;;;10.07;2.45;;;18.30;57.50;;;;;;5057653;28;20239;-81
2020/12/19 12:17:13;;;;;;;10.23;2.90;;;18.30;58.30;;;;;;5055815;28;20161;-80
2020/12/19 12:19:38;;;;;;;8.70;2.95;;;18.30;57.80;;;;;;5055913;28;20182;-77
2020/12/19 12:22:04;;;;;;;12.68;2.70;;;18.20;57.80;;;;;;5056683;28;20162;-79
2020/12/19 12:24:30;;;;;;;12.00;2.90;;;18.30;57.70;;;;;;5056300;28;20165;-81
2020/12/19 12:26:56;;;;;;;11.27;3.10;;;18.30;57.80;;;;;;5040843;28;20617;-81
2020/12/19 12:29:22;;;;;;;14.30;3.08;;;18.30;57.90;;;;;;5057719;28;20158;-80
2020/12/19 12:31:48;;;;;;;12.70;2.80;;;18.30;57.90;;;;;;5061094;28;20173;-83
2020/12/19 12:34:14;;;;;;;10.18;2.78;;;18.30;57.90;;;;;;5058487;28;20621;-81
2020/12/19 12:36:40;;;;;;;12.90;2.88;;;18.20;57.90;;;;;;5058541;28;20189;-82
2020/12/19 12:39:06;;;;;;;13.75;2.60;;;18.30;58.00;;;;;;5074299;28;20213;-81
2020/12/19 12:41:32;;;;;;;9.48;2.88;;;18.30;57.90;;;;;;5078822;28;20156;-83
2020/12/19 12:43:59;;;;;;;9.70;2.83;;;18.30;57.90;;;;;;5078427;28;20158;-81
2020/12/19 12:46:24;;;;;;;10.90;3.10;;;18.30;57.90;;;;;;5076930;28;20667;-80
2020/12/19 12:48:50;;;;;;;9.90;2.78;;;18.30;57.80;;;;;;5076812;28;20189;-82
2020/12/19 12:51:16;;;;;;;14.45;3.28;;;18.30;58.10;;;;;;5058043;28;20172;-80